Time;durP1;ratioP1;P1;durP2;ratioP2;P2;SDS_P1;SDS_P2;PMS_P1;PMS_P2;Temp;Humidity;BMP_temperature;BMP_pressure;BME280_temperature;BME280_humidity;BME280_pressure;Samples;Min_cycle;Max_cycle;Signal;HPM_P1;HPM_P2
2023/12/09 00:01:48;;;;;;;1999.90;999.90;;;;;;;0.29;85.12;96435.19;5093309;28;20073;-64
2023/12/09 00:04:15;;;;;;;1999.90;999.90;;;;;;;0.24;85.50;96439.47;5093270;28;20080;-62
2023/12/09 00:06:47;;;;;;;1999.90;999.90;;;;;;;0.24;85.30;96434.34;5093362;28;20050;-61
2023/12/09 00:09:18;;;;;;;1999.90;999.90;;;;;;;0.24;85.20;96442.06;5093221;28;20097;-61
2023/12/09 00:11:45;;;;;;;1999.90;999.90;;;;;;;0.20;85.47;96435.16;5093235;28;20494;-64
2023/12/09 00:14:12;;;;;;;1999.90;999.90;;;;;;;0.17;85.43;96433.44;5093148;28;20090;-61
2023/12/09 00:16:40;;;;;;;1999.90;999.90;;;;;;;0.17;85.60;96430.88;5093101;28;20135;-63
2023/12/09 00:19:09;;;;;;;1999.90;999.90;;;;;;;0.20;85.29;96436.03;5093162;28;20436;-61
2023/12/09 00:21:36;;;;;;;1999.90;999.90;;;;;;;0.20;85.08;96435.16;5093075;28;20438;-64
2023/12/09 00:24:03;;;;;;;1999.90;999.90;;;;;;;0.05;84.87;96434.28;5093073;28;20044;-61
2023/12/09 00:26:32;;;;;;;1999.90;999.90;;;;;;;-0.05;85.45;96422.25;5093124;28;20143;-60
2023/12/09 00:28:59;;;;;;;1999.90;999.90;;;;;;;-0.09;85.38;96429.09;5092926;28;20138;-60
2023/12/09 00:31:26;;;;;;;1999.90;999.90;;;;;;;-0.04;85.88;96422.28;5092946;28;20105;-62
2023/12/09 00:33:53;;;;;;;1999.90;999.90;;;;;;;0.03;85.70;96427.44;5093105;28;20105;-63
2023/12/09 00:36:20;;;;;;;1999.90;999.90;;;;;;;0.09;85.36;96422.31;5093016;28;20134;-64
2023/12/09 00:38:47;;;;;;;1999.90;999.90;;;;;;;0.09;85.43;96423.13;5093064;28;20082;-62
2023/12/09 00:41:14;;;;;;;1999.90;999.90;;;;;;;0.12;85.22;96425.72;5093051;28;20147;-64
2023/12/09 00:43:43;;;;;;;1999.90;999.90;;;;;;;0.09;85.12;96414.59;5095778;28;20044;-64
2023/12/09 00:46:10;;;;;;;1999.90;999.90;;;;;;;0.09;85.01;96417.16;5096954;28;20087;-61
2023/12/09 00:48:37;;;;;;;1999.90;999.90;;;;;;;0.14;84.56;96417.13;5097007;28;20426;-63
2023/12/09 00:51:05;;;;;;;1999.90;999.90;;;;;;;0.14;84.54;96417.13;5096836;28;20203;-62
2023/12/09 00:53:32;;;;;;;1999.90;999.90;;;;;;;0.07;84.59;96413.72;5097046;28;20129;-64
2023/12/09 00:55:59;;;;;;;1999.90;999.90;;;;;;;0.01;85.00;96409.41;5096836;28;20044;-61
2023/12/09 00:58:27;;;;;;;1999.90;999.90;;;;;;;0.01;84.96;96403.41;5096757;28;20048;-61
2023/12/09 01:00:55;;;;;;;1999.90;999.90;;;;;;;-0.04;85.18;96408.53;5096775;28;20137;-62
2023/12/09 01:03:22;;;;;;;1999.90;999.90;;;;;;;-0.02;85.14;96406.84;5096718;28;20093;-61
2023/12/09 01:05:49;;;;;;;1999.90;999.90;;;;;;;-0.04;85.20;96398.25;5096637;28;20048;-63
2023/12/09 01:08:16;;;;;;;1999.90;999.90;;;;;;;-0.05;85.28;96399.97;5096690;28;20492;-63
2023/12/09 01:10:43;;;;;;;1999.90;999.90;;;;;;;-0.06;85.06;96399.97;5096598;28;20131;-62
2023/12/09 01:13:10;;;;;;;1999.90;999.90;;;;;;;-0.13;85.38;96396.53;5096482;28;20056;-62
2023/12/09 01:15:37;;;;;;;1999.90;999.90;;;;;;;-0.11;85.23;96397.41;5096513;28;20493;-61
2023/12/09 01:18:05;;;;;;;1999.90;999.90;;;;;;;-0.10;84.79;96405.94;5096646;28;20473;-63
2023/12/09 01:20:33;;;;;;;1999.90;999.90;;;;;;;-0.09;85.17;96399.97;5096476;28;20044;-61
2023/12/09 01:23:00;;;;;;;1999.90;999.90;;;;;;;-0.09;85.12;96402.53;5096329;28;20048;-63
2023/12/09 01:25:27;;;;;;;1999.90;999.90;;;;;;;-0.09;84.79;96394.81;5096248;28;20047;-63
2023/12/09 01:27:54;;;;;;;1999.90;999.90;;;;;;;-0.08;84.88;96404.25;5095945;28;20052;-61
2023/12/09 01:30:21;;;;;;;1999.90;999.90;;;;;;;-0.06;84.49;96402.56;5096162;28;20079;-64
2023/12/09 01:32:48;;;;;;;1999.90;999.90;;;;;;;-0.08;84.72;96404.25;5096004;28;20056;-62
2023/12/09 01:35:16;;;;;;;1999.90;999.90;;;;;;;-0.14;84.26;96416.25;5095940;28;20098;-63
2023/12/09 01:37:43;;;;;;;1999.90;999.90;;;;;;;-0.17;84.71;96415.38;5096018;28;20076;-62
2023/12/09 01:40:14;;;;;;;1999.90;999.90;;;;;;;-0.16;84.82;96417.97;5096080;28;20040;-61
2023/12/09 01:42:42;;;;;;;1999.90;999.90;;;;;;;-0.19;84.83;96417.94;5096046;28;20121;-62
2023/12/09 01:45:10;;;;;;;1999.90;999.90;;;;;;;-0.25;84.96;96415.34;5096020;28;20047;-61
2023/12/09 01:47:37;;;;;;;1999.90;999.90;;;;;;;-0.32;85.21;96413.63;5095937;28;20044;-62
2023/12/09 01:50:06;;;;;;;1999.90;999.90;;;;;;;-0.34;85.22;96415.31;5095720;28;20077;-63
2023/12/09 01:52:35;;;;;;;1999.90;999.90;;;;;;;-0.31;85.40;96416.19;5095723;28;20052;-63
2023/12/09 01:55:02;;;;;;;1999.90;999.90;;;;;;;-0.44;85.30;96414.44;5094919;28;20383;-63
2023/12/09 01:57:29;;;;;;;1999.90;999.90;;;;;;;-0.58;85.53;96410.09;5095743;28;20077;-61
2023/12/09 01:59:57;;;;;;;1999.90;999.90;;;;;;;-0.60;85.82;96410.97;5095640;28;20052;-63
2023/12/09 02:02:24;;;;;;;1999.90;999.90;;;;;;;-0.70;86.10;96410.91;5095571;28;20044;-61
2023/12/09 02:04:53;;;;;;;1999.90;999.90;;;;;;;-0.81;86.60;96421.13;5095543;28;20055;-63
2023/12/09 02:07:20;;;;;;;1999.90;999.90;;;;;;;-0.88;86.57;96419.38;5095416;28;20048;-61
2023/12/09 02:09:48;;;;;;;1999.90;999.90;;;;;;;-0.98;87.07;96423.63;5095526;28;20051;-62
2023/12/09 02:12:22;;;;;;;1999.90;999.90;;;;;;;-1.06;87.53;96422.69;5095417;28;20084;-64
2023/12/09 02:14:58;;;;;;;1999.90;999.90;;;;;;;-1.11;87.76;96421.81;5095287;28;20509;-64
2023/12/09 02:17:32;;;;;;;1999.90;999.90;;;;;;;-1.13;87.94;96418.38;5095213;28;20543;-62
2023/12/09 02:20:00;;;;;;;1999.90;999.90;;;;;;;-1.12;87.74;96418.38;5095161;28;20076;-64
2023/12/09 02:22:28;;;;;;;1999.90;999.90;;;;;;;-1.18;88.01;96421.78;5095125;28;20044;-61
2023/12/09 02:24:56;;;;;;;1999.90;999.90;;;;;;;-1.24;88.43;96418.31;5095144;28;20050;-61
2023/12/09 02:27:30;;;;;;;1999.90;999.90;;;;;;;-1.33;88.77;96424.25;5094950;28;20106;-64
2023/12/09 02:30:04;;;;;;;1999.90;999.90;;;;;;;-1.31;88.66;96417.41;5095063;28;20119;-61
2023/12/09 02:32:32;;;;;;;1999.90;999.90;;;;;;;-1.30;88.94;96416.56;5094989;28;20056;-62
2023/12/09 02:35:01;;;;;;;1999.90;999.90;;;;;;;-1.31;88.69;96420.84;5094855;28;20067;-63
2023/12/09 02:37:31;;;;;;;1999.90;999.90;;;;;;;-1.28;88.51;96422.56;5094907;28;20048;-63
2023/12/09 02:40:01;;;;;;;1999.90;999.90;;;;;;;-1.24;88.66;96410.63;5094829;28;20093;-61
2023/12/09 02:42:29;;;;;;;1999.90;999.90;;;;;;;-1.20;88.48;96412.34;5094856;28;20059;-63
2023/12/09 02:44:57;;;;;;;1999.90;999.90;;;;;;;-1.16;87.83;96414.97;5094722;28;20126;-63
2023/12/09 02:47:25;;;;;;;1999.90;999.90;;;;;;;-1.12;87.53;96420.94;5094758;28;20048;-61
2023/12/09 02:49:52;;;;;;;1999.90;999.90;;;;;;;-1.15;87.18;96419.22;5094615;28;20097;-62
2023/12/09 02:52:19;;;;;;;1999.90;999.90;;;;;;;-1.15;87.05;96408.09;5094646;28;20051;-64
2023/12/09 02:54:46;;;;;;;1999.90;999.90;;;;;;;-1.16;87.16;96411.53;5094763;28;20139;-62
2023/12/09 02:57:14;;;;;;;1999.90;999.90;;;;;;;-1.16;86.79;96414.09;5094516;28;20048;-62
2023/12/09 02:59:41;;;;;;;1999.90;999.90;;;;;;;-1.18;86.76;96403.81;5094419;28;20048;-61
2023/12/09 03:02:08;;;;;;;1999.90;999.90;;;;;;;-1.17;86.94;96409.81;5094479;28;20109;-62
2023/12/09 03:04:35;;;;;;;1999.90;999.90;;;;;;;-1.22;86.66;96419.19;5094435;28;20044;-61
2023/12/09 03:07:03;;;;;;;1999.90;999.90;;;;;;;-1.28;86.36;96414.88;5094210;28;20055;-62
2023/12/09 03:09:30;;;;;;;1999.90;999.90;;;;;;;-1.26;86.52;96415.75;5094535;28;20079;-64
2023/12/09 03:11:57;;;;;;;1999.90;999.90;;;;;;;-1.24;86.24;96410.63;5094101;28;20500;-64
2023/12/09 03:14:25;;;;;;;1999.90;999.90;;;;;;;-1.29;86.49;96415.72;5094193;28;20048;-61
2023/12/09 03:16:52;;;;;;;1999.90;999.90;;;;;;;-1.32;85.58;96418.25;5094139;28;20077;-64
2023/12/09 03:19:19;;;;;;;1999.90;999.90;;;;;;;-1.34;85.72;96409.69;5094124;28;20040;-63
2023/12/09 03:21:46;;;;;;;1999.90;999.90;;;;;;;-1.37;85.83;96410.53;5094075;28;20110;-62
2023/12/09 03:24:13;;;;;;;1999.90;999.90;;;;;;;-1.44;86.29;96401.06;5093950;28;20101;-61
2023/12/09 03:26:40;;;;;;;1999.90;999.90;;;;;;;-1.48;87.25;96402.75;5093989;28;20058;-62
2023/12/09 03:29:07;;;;;;;1999.90;999.90;;;;;;;-1.45;87.56;96397.63;5093770;28;20480;-63
2023/12/09 03:31:41;;;;;;;1999.90;999.90;;;;;;;-1.42;88.21;96407.06;5093887;28;20081;-64
2023/12/09 03:34:08;;;;;;;1999.90;999.90;;;;;;;-1.44;88.53;96401.06;5093827;28;20207;-61
2023/12/09 03:36:35;;;;;;;1999.90;999.90;;;;;;;-1.40;88.91;96395.97;5093659;28;20083;-62
2023/12/09 03:39:02;;;;;;;1999.90;999.90;;;;;;;-1.37;89.34;96390.00;5093809;28;20048;-61
2023/12/09 03:41:29;;;;;;;1999.90;999.90;;;;;;;-1.35;89.17;96390.88;5093795;28;20074;-63
2023/12/09 03:43:57;;;;;;;1999.90;999.90;;;;;;;-1.35;88.89;96387.44;5093493;28;20139;-64
2023/12/09 03:46:24;;;;;;;1999.90;999.90;;;;;;;-1.31;89.01;96384.91;5093744;28;20040;-61
2023/12/09 03:48:52;;;;;;;1999.90;999.90;;;;;;;-1.30;89.12;96380.63;5093678;28;20052;-62
2023/12/09 03:51:19;;;;;;;1999.90;999.90;;;;;;;-1.26;88.70;96379.81;5093600;28;20126;-62
2023/12/09 03:53:46;;;;;;;1999.90;999.90;;;;;;;-1.26;88.43;96384.94;5093455;28;20052;-64
2023/12/09 03:56:17;;;;;;;1999.90;999.90;;;;;;;-1.27;88.21;96383.19;5093424;28;20159;-63
2023/12/09 03:58:44;;;;;;;1999.90;999.90;;;;;;;-1.22;88.09;96390.94;5093408;28;20109;-61
2023/12/09 04:01:11;;;;;;;1999.90;999.90;;;;;;;-1.19;87.77;96396.09;5093453;28;20130;-60
2023/12/09 04:03:38;;;;;;;1999.90;999.90;;;;;;;-1.17;87.48;96396.97;5093471;28;20044;-63
2023/12/09 04:06:07;;;;;;;1999.90;999.90;;;;;;;-1.15;87.46;96398.69;5093309;28;20052;-64
2023/12/09 04:08:34;;;;;;;1999.90;999.90;;;;;;;-1.11;87.57;96399.59;5093441;28;20075;-62
2023/12/09 04:11:02;;;;;;;1999.90;999.90;;;;;;;-1.09;87.34;96397.03;5093367;28;20075;-63
2023/12/09 04:13:29;;;;;;;1999.90;999.90;;;;;;;-1.12;87.46;96400.41;5093160;28;20092;-64
2023/12/09 04:15:56;;;;;;;1999.90;999.90;;;;;;;-1.10;86.93;96398.72;5093264;28;20044;-63
2023/12/09 04:18:23;;;;;;;1999.90;999.90;;;;;;;-1.12;86.77;96397.84;5092793;28;20052;-63
2023/12/09 04:20:50;;;;;;;1999.90;999.90;;;;;;;-1.16;86.85;96398.69;5093190;28;20105;-61
2023/12/09 04:23:18;;;;;;;1999.90;999.90;;;;;;;-1.22;86.85;96409.78;5093148;28;20142;-60
2023/12/09 04:25:46;;;;;;;1999.90;999.90;;;;;;;-1.30;86.73;96409.72;5093057;28;20506;-61
2023/12/09 04:28:13;;;;;;;1999.90;999.90;;;;;;;-1.35;87.00;96407.97;5092842;28;20131;-61
2023/12/09 04:30:40;;;;;;;1999.90;999.90;;;;;;;-1.29;87.96;96408.88;5093048;28;20131;-65
2023/12/09 04:33:07;;;;;;;1999.90;999.90;;;;;;;-1.21;87.52;96400.38;5092997;28;20109;-61
2023/12/09 04:35:33;;;;;;;1999.90;999.90;;;;;;;-1.20;87.24;96396.94;5093036;28;20466;-63
2023/12/09 04:38:00;;;;;;;1999.90;999.90;;;;;;;-1.21;87.08;96415.78;5093034;28;20048;-65
2023/12/09 04:40:29;;;;;;;1999.90;999.90;;;;;;;-1.22;87.31;96401.22;5093223;28;20176;-63
2023/12/09 04:42:56;;;;;;;1999.90;999.90;;;;;;;-1.18;87.36;96400.38;5093043;28;20055;-61
2023/12/09 04:45:23;;;;;;;1999.90;999.90;;;;;;;-1.21;87.04;96401.22;5092871;28;20135;-60
2023/12/09 04:47:50;;;;;;;1999.90;999.90;;;;;;;-1.20;87.51;96400.34;5092860;28;20048;-64
2023/12/09 04:50:17;;;;;;;1999.90;999.90;;;;;;;-1.18;87.37;96398.66;5092922;28;20498;-62
2023/12/09 04:52:44;;;;;;;1999.90;999.90;;;;;;;-1.22;87.15;96396.06;5092823;28;20128;-63
2023/12/09 04:55:12;;;;;;;1999.90;999.90;;;;;;;-1.24;87.03;96400.34;5092768;28;20143;-62
2023/12/09 04:57:40;;;;;;;1999.90;999.90;;;;;;;-1.25;86.93;96399.50;5092843;28;20048;-64
2023/12/09 05:00:10;;;;;;;1999.90;999.90;;;;;;;-1.20;87.18;96395.22;5092854;28;20044;-62
2023/12/09 05:02:37;;;;;;;1999.90;999.90;;;;;;;-1.21;86.54;96395.25;5092912;28;20059;-61
2023/12/09 05:05:05;;;;;;;1999.90;999.90;;;;;;;-1.20;86.07;96409.78;5092660;28;20079;-63
2023/12/09 05:07:33;;;;;;;1999.90;999.90;;;;;;;-1.22;86.09;96412.34;5092712;28;20044;-62
2023/12/09 05:10:00;;;;;;;1999.90;999.90;;;;;;;-1.33;85.66;96417.41;5092726;28;20494;-61
2023/12/09 05:12:27;;;;;;;1999.90;999.90;;;;;;;-1.48;85.34;96417.31;5092849;28;20066;-63
2023/12/09 05:14:55;;;;;;;1999.90;999.90;;;;;;;-1.58;85.95;96424.91;5092635;28;20498;-61
2023/12/09 05:17:22;;;;;;;1999.90;999.90;;;;;;;-1.50;86.01;96426.69;5092690;28;20147;-61
2023/12/09 05:19:50;;;;;;;1999.90;999.90;;;;;;;-1.55;85.94;96429.22;5092609;28;20056;-61
2023/12/09 05:22:18;;;;;;;1999.90;999.90;;;;;;;-1.53;85.77;96433.50;5092614;28;20051;-61
2023/12/09 05:24:45;;;;;;;1999.90;999.90;;;;;;;-1.54;85.50;96434.34;5092571;28;20054;-64
2023/12/09 05:27:12;;;;;;;1999.90;999.90;;;;;;;-1.59;85.79;96430.91;5092551;28;20048;-60
2023/12/09 05:29:40;;;;;;;1999.90;999.90;;;;;;;-1.63;85.56;96426.56;5093210;28;20097;-63
2023/12/09 05:32:09;;;;;;;1999.90;999.90;;;;;;;-1.66;85.26;96427.41;5096124;28;20052;-63
2023/12/09 05:34:36;;;;;;;1999.90;999.90;;;;;;;-1.68;85.48;96441.91;5096061;28;20059;-63
2023/12/09 05:37:03;;;;;;;1999.90;999.90;;;;;;;-1.71;85.70;96441.06;5096141;28;20048;-64
2023/12/09 05:39:30;;;;;;;1999.90;999.90;;;;;;;-1.79;85.97;96449.53;5096065;28;20405;-63
2023/12/09 05:41:57;;;;;;;1999.90;999.90;;;;;;;-1.79;86.39;96448.66;5096117;28;20067;-63
2023/12/09 05:44:24;;;;;;;1999.90;999.90;;;;;;;-1.79;86.67;96452.09;5095902;28;20511;-61
2023/12/09 05:46:52;;;;;;;1999.90;999.90;;;;;;;-1.75;86.47;96459.84;5095892;28;20048;-64
2023/12/09 05:49:20;;;;;;;1999.90;999.90;;;;;;;-1.79;86.03;96457.25;5095829;28;20509;-62
2023/12/09 05:51:48;;;;;;;1999.90;999.90;;;;;;;-1.95;86.11;96460.50;5095829;28;20131;-62
2023/12/09 05:54:15;;;;;;;1999.90;999.90;;;;;;;-2.03;87.13;96462.97;5095728;28;20048;-64
2023/12/09 05:56:49;;;;;;;1999.90;999.90;;;;;;;-1.93;87.69;96474.16;5095749;28;20044;-64
2023/12/09 05:59:16;;;;;;;1999.90;999.90;;;;;;;-1.84;87.35;96473.44;5095801;28;20076;-63
2023/12/09 06:01:43;;;;;;;1999.90;999.90;;;;;;;-1.79;87.03;96480.31;5095598;28;20493;-61
2023/12/09 06:04:10;;;;;;;1999.90;999.90;;;;;;;-1.73;86.49;96481.22;5095536;28;20048;-62
2023/12/09 06:06:38;;;;;;;1999.90;999.90;;;;;;;-1.69;86.11;96482.94;5095650;28;20044;-62
2023/12/09 06:09:06;;;;;;;1999.90;999.90;;;;;;;-1.65;85.77;96475.31;5095581;28;20048;-62
2023/12/09 06:11:33;;;;;;;1999.90;999.90;;;;;;;-1.68;85.54;96482.13;5095560;28;20051;-65
2023/12/09 06:14:01;;;;;;;1999.90;999.90;;;;;;;-1.53;85.83;96489.94;5095236;28;20052;-61
2023/12/09 06:16:28;;;;;;;1999.90;999.90;;;;;;;-0.47;88.21;96483.81;5095234;28;20138;-64
2023/12/09 06:18:55;;;;;;;1999.90;999.90;;;;;;;1.14;81.91;96482.38;5095468;28;20044;-63
2023/12/09 06:21:23;;;;;;;1999.90;999.90;;;;;;;2.82;72.34;96503.97;5095197;28;20131;-61
2023/12/09 06:23:52;;;;;;;1999.90;999.90;;;;;;;4.20;65.98;96518.09;5095266;28;20040;-64
2023/12/09 06:26:19;;;;;;;1999.90;999.90;;;;;;;5.20;62.50;96522.69;5095257;28;20047;-62
2023/12/09 06:28:47;;;;;;;1999.90;999.90;;;;;;;5.73;57.29;96508.78;5094895;28;20114;-62
2023/12/09 06:31:15;;;;;;;1999.90;999.90;;;;;;;5.79;56.21;96510.41;5094983;28;20105;-62
2023/12/09 06:33:42;;;;;;;1999.90;999.90;;;;;;;5.66;56.85;96502.84;5094901;28;20059;-62
2023/12/09 06:36:10;;;;;;;1999.90;999.90;;;;;;;5.38;57.40;96510.25;5095300;28;20048;-62
2023/12/09 06:38:40;;;;;;;1999.90;999.90;;;;;;;5.00;56.65;96505.69;5095031;28;20125;-62
2023/12/09 06:41:09;;;;;;;1999.90;999.90;;;;;;;4.57;56.99;96509.81;5094592;28;20052;-63
2023/12/09 06:43:36;;;;;;;1999.90;999.90;;;;;;;4.26;57.51;96515.44;5094942;28;20113;-64
2023/12/09 06:46:04;;;;;;;1999.90;999.90;;;;;;;4.16;58.38;96514.72;5094858;28;20409;-64
2023/12/09 06:48:32;;;;;;;1999.90;999.90;;;;;;;4.25;59.23;96513.72;5094691;28;20044;-62
2023/12/09 06:50:59;;;;;;;1999.90;999.90;;;;;;;4.68;57.78;96520.91;5094774;28;20040;-64
2023/12/09 06:53:28;;;;;;;1999.90;999.90;;;;;;;5.22;56.78;96520.94;5094431;28;20506;-63
2023/12/09 06:55:55;;;;;;;1999.90;999.90;;;;;;;5.69;55.94;96520.13;5094492;28;20047;-63
2023/12/09 06:58:25;;;;;;;1999.90;999.90;;;;;;;6.40;54.49;96522.19;5094486;28;20494;-62
2023/12/09 07:00:52;;;;;;;1999.90;999.90;;;;;;;7.46;52.04;96515.38;5094379;28;20490;-63
2023/12/09 07:03:19;;;;;;;1999.90;999.90;;;;;;;8.80;50.44;96521.19;5094427;28;20418;-64
2023/12/09 07:05:46;;;;;;;1999.90;999.90;;;;;;;10.11;45.96;96524.66;5094324;28;20044;-63
2023/12/09 07:08:14;;;;;;;1999.90;999.90;;;;;;;11.14;43.41;96527.81;5094412;28;20406;-65
2023/12/09 07:10:45;;;;;;;1999.90;999.90;;;;;;;11.97;42.23;96526.97;5094281;28;20044;-63
2023/12/09 07:13:12;;;;;;;1999.90;999.90;;;;;;;12.80;40.58;96521.56;5094163;28;20075;-64
2023/12/09 07:15:41;;;;;;;1999.90;999.90;;;;;;;13.90;38.55;96530.25;5094213;28;20105;-64
2023/12/09 07:18:08;;;;;;;1999.90;999.90;;;;;;;14.84;36.76;96528.81;5094096;28;20071;-64
2023/12/09 07:20:35;;;;;;;1999.90;999.90;;;;;;;15.77;35.14;96543.78;5094042;28;20052;-62
2023/12/09 07:23:02;;;;;;;1999.90;999.90;;;;;;;16.53;34.08;96553.41;5094236;28;20040;-63
2023/12/09 07:25:29;;;;;;;1999.90;999.90;;;;;;;17.10;32.78;96548.97;5093963;28;20135;-61
2023/12/09 07:27:57;;;;;;;1999.90;999.90;;;;;;;17.61;31.56;96542.16;5093888;28;20044;-63
2023/12/09 07:30:24;;;;;;;1999.90;999.90;;;;;;;17.85;31.81;96545.94;5093970;28;20066;-61
2023/12/09 07:32:53;;;;;;;1999.90;999.90;;;;;;;17.90;30.78;96547.31;5094177;28;20070;-61
2023/12/09 07:35:20;;;;;;;1999.90;999.90;;;;;;;18.07;30.94;96542.69;5093908;28;20055;-63
2023/12/09 07:37:48;;;;;;;1999.90;999.90;;;;;;;18.39;30.71;96542.25;5093957;28;20123;-64
2023/12/09 07:40:15;;;;;;;1999.90;999.90;;;;;;;18.78;29.86;96549.31;5093895;28;20473;-62
2023/12/09 07:42:43;;;;;;;1999.90;999.90;;;;;;;19.06;29.07;96545.50;5093707;28;20125;-61
2023/12/09 07:45:10;;;;;;;1999.90;999.90;;;;;;;18.97;28.87;96540.91;5093651;28;20475;-63
2023/12/09 07:47:37;;;;;;;1999.90;999.90;;;;;;;19.21;28.35;96542.75;5093705;28;20707;-63
2023/12/09 07:50:07;;;;;;;1999.90;999.90;;;;;;;19.32;28.52;96539.28;5093539;28;20135;-63
2023/12/09 07:52:35;;;;;;;1999.90;999.90;;;;;;;19.33;28.49;96525.09;5092824;28;20478;-63
2023/12/09 07:55:02;;;;;;;1999.90;999.90;;;;;;;18.78;29.48;96522.84;5093375;28;20052;-64
2023/12/09 07:57:29;;;;;;;1999.90;999.90;;;;;;;18.37;29.52;96523.00;5093508;28;20048;-64
2023/12/09 07:59:56;;;;;;;1999.90;999.90;;;;;;;18.40;29.82;96525.44;5093453;28;20414;-63
2023/12/09 08:02:24;;;;;;;1999.90;999.90;;;;;;;18.70;29.89;96512.78;5093432;28;20052;-64
2023/12/09 08:04:51;;;;;;;1999.90;999.90;;;;;;;19.25;30.55;96517.69;5093388;28;20406;-63
2023/12/09 08:07:20;;;;;;;1999.90;999.90;;;;;;;18.65;29.95;96509.59;5093455;28;20051;-62
2023/12/09 08:09:47;;;;;;;1999.90;999.90;;;;;;;18.27;30.86;96514.84;5093355;28;20048;-62
2023/12/09 08:12:15;;;;;;;1999.90;999.90;;;;;;;18.43;30.68;96513.78;5093185;28;20039;-61
2023/12/09 08:14:42;;;;;;;1999.90;999.90;;;;;;;18.88;31.44;96523.00;5092887;28;20513;-64
2023/12/09 08:17:09;;;;;;;1999.90;999.90;;;;;;;19.34;29.98;96525.91;5093262;28;20130;-64
2023/12/09 08:19:36;;;;;;;1999.90;999.90;;;;;;;19.54;29.22;96525.28;5093107;28;20052;-65
2023/12/09 08:22:04;;;;;;;1999.90;999.90;;;;;;;19.09;30.88;96523.28;5093235;28;20048;-62
2023/12/09 08:24:33;;;;;;;1999.90;999.90;;;;;;;19.15;29.06;96530.75;5093137;28;20048;-60
2023/12/09 08:27:01;;;;;;;1999.90;999.90;;;;;;;18.50;31.17;96515.03;5093222;28;20452;-63
2023/12/09 08:29:28;;;;;;;1999.90;999.90;;;;;;;16.72;31.08;96507.34;5092958;28;20048;-64
2023/12/09 08:31:56;;;;;;;1999.90;999.90;;;;;;;16.06;33.06;96506.09;5093149;28;20044;-64
2023/12/09 08:34:24;;;;;;;1999.90;999.90;;;;;;;15.91;33.91;96502.56;5093020;28;20097;-62
2023/12/09 08:36:51;;;;;;;1999.90;999.90;;;;;;;15.66;34.47;96510.13;5093146;28;20123;-65
2023/12/09 08:39:19;;;;;;;1999.90;999.90;;;;;;;15.18;37.69;96510.28;5093164;28;20044;-65
2023/12/09 08:41:48;;;;;;;1999.90;999.90;;;;;;;14.72;36.28;96504.00;5092966;28;20079;-65
2023/12/09 08:44:17;;;;;;;1999.90;999.90;;;;;;;14.48;38.80;96501.78;5092918;28;20052;-65
2023/12/09 08:46:44;;;;;;;1999.90;999.90;;;;;;;13.88;39.36;96498.75;5093001;28;20125;-61
2023/12/09 08:49:14;;;;;;;1999.90;999.90;;;;;;;13.61;40.94;96491.38;5092914;28;20048;-65
2023/12/09 08:51:48;;;;;;;1999.90;999.90;;;;;;;13.02;43.54;96494.25;5092859;28;20121;-65
2023/12/09 08:54:15;;;;;;;1999.90;999.90;;;;;;;13.05;41.48;96496.75;5092801;28;20409;-64
2023/12/09 08:56:42;;;;;;;1999.90;999.90;;;;;;;13.07;40.56;96486.16;5092674;28;20494;-64
2023/12/09 08:59:11;;;;;;;1999.90;999.90;;;;;;;12.52;38.54;96480.84;5092898;28;20040;-61
2023/12/09 09:01:38;;;;;;;1999.90;999.90;;;;;;;11.73;42.43;96475.59;5092789;28;20501;-63
2023/12/09 09:04:05;;;;;;;1999.90;999.90;;;;;;;10.73;41.02;96470.97;5094533;28;20067;-61
2023/12/09 09:06:32;;;;;;;1999.90;999.90;;;;;;;9.62;44.62;96459.34;5096677;28;20048;-64
2023/12/09 09:09:00;;;;;;;1999.90;999.90;;;;;;;9.05;47.07;96462.16;5096691;28;20072;-62
2023/12/09 09:11:27;;;;;;;1999.90;999.90;;;;;;;8.49;48.40;96458.69;5096588;28;20055;-62
2023/12/09 09:13:54;;;;;;;1999.90;999.90;;;;;;;8.44;48.73;96453.59;5096543;28;20040;-64
2023/12/09 09:16:23;;;;;;;1999.90;999.90;;;;;;;8.32;50.28;96444.41;5096563;28;20048;-64
2023/12/09 09:18:50;;;;;;;1999.90;999.90;;;;;;;8.28;51.71;96448.84;5096553;28;20043;-65
2023/12/09 09:21:18;;;;;;;1999.90;999.90;;;;;;;8.13;48.22;96450.16;5096606;28;20082;-66
2023/12/09 09:23:45;;;;;;;1999.90;999.90;;;;;;;8.03;51.58;96440.91;5096316;28;20040;-63
2023/12/09 09:26:12;;;;;;;1999.90;999.90;;;;;;;8.04;51.81;96440.88;5096302;28;20144;-61
2023/12/09 09:28:40;;;;;;;1999.90;999.90;;;;;;;8.06;51.11;96430.41;5096069;28;20048;-63
2023/12/09 09:31:07;;;;;;;1999.90;999.90;;;;;;;8.09;51.34;96440.72;5096350;28;20411;-63
2023/12/09 09:33:37;;;;;;;1999.90;999.90;;;;;;;8.07;49.55;96432.97;5096208;28;20040;-64
2023/12/09 09:36:04;;;;;;;1999.90;999.90;;;;;;;7.85;51.18;96435.34;5096002;28;20071;-62
2023/12/09 09:38:31;;;;;;;1999.90;999.90;;;;;;;7.89;50.04;96425.69;5096034;28;20055;-65
2023/12/09 09:40:59;;;;;;;1999.90;999.90;;;;;;;7.87;51.57;96430.09;5096051;28;20048;-62
2023/12/09 09:43:32;;;;;;;1999.90;999.90;;;;;;;7.88;51.34;96424.84;5095966;28;20056;-63
2023/12/09 09:46:02;;;;;;;1999.90;999.90;;;;;;;7.99;51.18;96423.66;5096022;28;20126;-65
2023/12/09 09:48:37;;;;;;;1999.90;999.90;;;;;;;7.86;52.51;96421.44;5096058;28;20044;-61
2023/12/09 09:51:08;;;;;;;1999.90;999.90;;;;;;;7.82;50.61;96428.47;5095753;28;20127;-63
2023/12/09 09:53:38;;;;;;;1999.90;999.90;;;;;;;7.67;49.56;96421.94;5095915;28;20089;-64
2023/12/09 09:56:08;;;;;;;1999.90;999.90;;;;;;;7.67;49.62;96421.09;5095752;28;20056;-63
2023/12/09 09:58:36;;;;;;;1999.90;999.90;;;;;;;7.70;48.31;96414.06;5095746;28;20143;-64
2023/12/09 10:01:05;;;;;;;1999.90;999.90;;;;;;;7.73;50.08;96420.09;5095649;28;20493;-65
2023/12/09 10:03:33;;;;;;;1999.90;999.90;;;;;;;7.70;50.83;96423.59;5095629;28;20139;-62
2023/12/09 10:06:00;;;;;;;1999.90;999.90;;;;;;;7.64;49.31;96415.97;5095512;28;20048;-65
2023/12/09 10:08:30;;;;;;;1999.90;999.90;;;;;;;7.53;48.80;96405.88;5095666;28;20044;-63
2023/12/09 10:10:58;;;;;;;1999.90;999.90;;;;;;;7.48;48.63;96420.75;5095557;28;20044;-62
2023/12/09 10:13:25;;;;;;;1999.90;999.90;;;;;;;7.41;49.17;96410.50;5095404;28;20116;-62
2023/12/09 10:15:52;;;;;;;1999.90;999.90;;;;;;;7.42;51.04;96409.63;5094367;28;20055;-63
2023/12/09 10:18:24;;;;;;;1999.90;999.90;;;;;;;7.55;50.32;96414.47;5095291;28;20138;-64
2023/12/09 10:20:52;;;;;;;1999.90;999.90;;;;;;;7.66;48.35;96403.78;5095329;28;20047;-64
2023/12/09 10:23:19;;;;;;;1999.90;999.90;;;;;;;7.65;49.23;96404.69;5095191;28;20043;-62
2023/12/09 10:25:48;;;;;;;1999.90;999.90;;;;;;;7.68;49.27;96409.81;5095250;28;20044;-63
2023/12/09 10:28:16;;;;;;;1999.90;999.90;;;;;;;7.57;48.46;96405.75;5094975;28;20525;-65
2023/12/09 10:30:43;;;;;;;1999.90;999.90;;;;;;;7.53;47.78;96404.09;5095068;28;20048;-63
2023/12/09 10:33:11;;;;;;;1999.90;999.90;;;;;;;7.41;45.70;96405.31;5095017;28;20057;-65
2023/12/09 10:35:39;;;;;;;1999.90;999.90;;;;;;;7.39;49.64;96404.50;5094885;28;20117;-65
2023/12/09 10:38:06;;;;;;;1999.90;999.90;;;;;;;7.33;48.05;96404.66;5094899;28;20051;-64
2023/12/09 10:40:33;;;;;;;1999.90;999.90;;;;;;;7.30;46.84;96397.81;5094920;28;20093;-63
2023/12/09 10:43:02;;;;;;;1999.90;999.90;;;;;;;7.30;49.43;96409.94;5094969;28;20055;-65
2023/12/09 10:45:29;;;;;;;1999.90;999.90;;;;;;;7.37;47.01;96395.03;5094875;28;20040;-62
2023/12/09 10:47:57;;;;;;;1999.90;999.90;;;;;;;7.43;46.93;96394.84;5094786;28;20043;-63
2023/12/09 10:50:24;;;;;;;1999.90;999.90;;;;;;;7.47;49.26;96399.09;5094871;28;20089;-62
2023/12/09 10:52:52;;;;;;;1999.90;999.90;;;;;;;7.56;48.44;96396.22;5094532;28;20079;-65
2023/12/09 10:55:19;;;;;;;1999.90;999.90;;;;;;;7.59;48.08;96392.69;5094460;28;20048;-65
2023/12/09 10:57:50;;;;;;;1999.90;999.90;;;;;;;7.65;46.99;96395.09;5094546;28;20524;-64
2023/12/09 11:00:20;;;;;;;1999.90;999.90;;;;;;;7.61;47.94;96384.84;5094553;28;20123;-64